createdAt,value
2017-09-12T00:00:50.669Z,75.8
2017-09-12T00:01:53.064Z,75.8
2017-09-12T00:02:55.793Z,75.8
2017-09-12T00:03:58.185Z,75.8
2017-09-12T00:05:00.578Z,75.8
2017-09-12T00:06:02.985Z,75.8
2017-09-12T00:07:05.377Z,75.8
2017-09-12T00:08:07.774Z,75.8
2017-09-12T00:09:10.161Z,75.8
2017-09-12T00:10:12.551Z,75.8
2017-09-12T00:11:15.300Z,75.8
2017-09-12T00:12:17.693Z,75.8
2017-09-12T00:13:20.093Z,75.8
2017-09-12T00:14:22.491Z,75.8
2017-09-12T00:15:24.888Z,75.7
2017-09-12T00:16:27.286Z,75.7
2017-09-12T00:17:29.677Z,75.7
2017-09-12T00:18:32.068Z,75.8
2017-09-12T00:19:34.458Z,75.8
2017-09-12T00:20:36.841Z,75.7
2017-09-12T00:21:39.231Z,75.7
2017-09-12T00:22:41.960Z,75.6
2017-09-12T00:23:44.354Z,75.6
2017-09-12T00:24:47.446Z,75.6
2017-09-12T00:25:49.834Z,75.6
2017-09-12T00:26:52.232Z,75.6
2017-09-12T00:27:54.630Z,75.8
2017-09-12T00:28:57.013Z,75.6
2017-09-12T00:29:59.407Z,75.8
2017-09-12T00:31:01.806Z,75.8
2017-09-12T00:32:04.195Z,75.6
2017-09-12T00:33:06.948Z,75.9
2017-09-12T00:34:09.694Z,75.7
2017-09-12T00:35:12.079Z,75.7
2017-09-12T00:36:14.475Z,75.7
2017-09-12T00:37:16.870Z,75.8
2017-09-12T00:38:19.268Z,75.6
2017-09-12T00:39:21.647Z,75.7
2017-09-12T00:40:24.041Z,75.8
2017-09-12T00:41:26.440Z,76.3
2017-09-12T00:42:28.830Z,75.5
2017-09-12T00:43:31.229Z,75.6
2017-09-12T00:44:33.610Z,75.6
2017-09-12T00:45:36.001Z,75.7
2017-09-12T00:46:38.401Z,75.9
2017-09-12T00:47:40.793Z,75.8
2017-09-12T00:48:43.176Z,76.1
2017-09-12T00:49:45.970Z,76.1
2017-09-12T00:50:48.356Z,75.8
2017-09-12T00:51:50.754Z,75.5
2017-09-12T00:52:53.158Z,76.1
2017-09-12T00:53:55.545Z,75.8
2017-09-12T00:54:57.934Z,75.5
2017-09-12T00:56:00.335Z,75.8
2017-09-12T00:57:02.723Z,76.5
2017-09-12T00:58:05.115Z,75.7
2017-09-12T00:59:07.511Z,75.4
2017-09-12T01:00:09.901Z,75.6
2017-09-12T01:01:12.303Z,75.6
2017-09-12T01:02:14.699Z,75.9
2017-09-12T01:03:17.079Z,76
2017-09-12T01:04:19.478Z,76
2017-09-12T01:05:21.871Z,75.6
2017-09-12T01:06:24.266Z,75.8
2017-09-12T01:07:26.664Z,75.7
2017-09-12T01:08:29.059Z,76.4
2017-09-12T01:09:31.452Z,75.8
2017-09-12T01:10:33.837Z,76
2017-09-12T01:11:36.232Z,75.9
2017-09-12T01:12:38.633Z,76.4
2017-09-12T01:13:41.030Z,76.6
2017-09-12T01:14:43.429Z,75.8
2017-09-12T01:15:45.818Z,76.4
2017-09-12T01:16:48.211Z,76.6
2017-09-12T01:17:50.605Z,75.9
2017-09-12T01:18:52.995Z,76.2
2017-09-12T01:19:55.383Z,76.6
2017-09-12T01:20:57.779Z,76.5
2017-09-12T01:22:00.504Z,76.2
2017-09-12T01:23:03.231Z,76
2017-09-12T01:24:05.620Z,76.7
2017-09-12T01:25:08.013Z,76.8
2017-09-12T01:26:10.426Z,76.3
2017-09-12T01:27:12.814Z,76.8
2017-09-12T01:28:15.205Z,76.2
2017-09-12T01:29:17.602Z,76.2
2017-09-12T01:30:19.999Z,76.8
2017-09-12T01:31:22.384Z,76.9
2017-09-12T01:32:24.777Z,76.8
2017-09-12T01:33:27.167Z,76.3
2017-09-12T01:34:29.566Z,76.9
2017-09-12T01:35:31.967Z,76.9
2017-09-12T01:36:34.354Z,76.5
2017-09-12T01:37:37.089Z,77
2017-09-12T01:38:39.476Z,76.9
2017-09-12T01:39:41.873Z,77
2017-09-12T01:40:44.263Z,76.4
2017-09-12T01:41:46.657Z,76.9
2017-09-12T01:42:49.055Z,77
2017-09-12T01:43:51.456Z,76.9
2017-09-12T01:44:53.838Z,77
2017-09-12T01:45:56.250Z,76.6
2017-09-12T01:46:58.648Z,76.6
2017-09-12T01:48:01.036Z,77
2017-09-12T01:49:03.429Z,77
2017-09-12T01:50:05.815Z,76.4
2017-09-12T01:51:08.207Z,76.9
2017-09-12T01:52:10.608Z,76.6
2017-09-12T01:53:12.991Z,77
2017-09-12T01:54:15.388Z,77
2017-09-12T01:55:17.786Z,76.9
2017-09-12T01:56:20.173Z,76.4
2017-09-12T01:57:22.930Z,76.8
2017-09-12T01:58:25.323Z,76.8
2017-09-12T01:59:27.709Z,77.1
2017-09-12T02:00:30.107Z,77.2
2017-09-12T02:01:32.501Z,77.1
2017-09-12T02:02:34.878Z,76.6
2017-09-12T02:03:37.640Z,77.3
2017-09-12T02:04:40.035Z,77.3
2017-09-12T02:05:42.422Z,76.9
2017-09-12T02:06:44.813Z,77.6
2017-09-12T02:07:47.553Z,77.5
2017-09-12T02:08:50.283Z,77.6
2017-09-12T02:09:52.670Z,77.6
2017-09-12T02:10:55.057Z,77.2
2017-09-12T02:11:57.453Z,77.6
2017-09-12T02:12:59.841Z,77.6
2017-09-12T02:14:02.575Z,77.6
2017-09-12T02:15:04.968Z,77.6
2017-09-12T02:16:07.361Z,77.3
2017-09-12T02:17:10.095Z,77.6
2017-09-12T02:18:12.496Z,77.6
2017-09-12T02:19:14.879Z,77.3
2017-09-12T02:20:17.275Z,77.2
2017-09-12T02:21:19.671Z,77.6
2017-09-12T02:22:22.060Z,77.6
2017-09-12T02:23:24.451Z,77.7
2017-09-12T02:24:26.838Z,77.8
2017-09-12T02:25:29.225Z,77.7
2017-09-12T02:26:31.625Z,77.6
2017-09-12T02:27:34.014Z,77.6
2017-09-12T02:28:36.399Z,77.3
2017-09-12T02:29:38.800Z,77.6
2017-09-12T02:30:41.192Z,77.6
2017-09-12T02:31:43.585Z,77.6
2017-09-12T02:32:45.982Z,77.2
2017-09-12T02:33:48.373Z,77.5
2017-09-12T02:34:50.767Z,77.5
2017-09-12T02:35:53.172Z,77.5
2017-09-12T02:36:55.561Z,77.6
2017-09-12T02:37:57.959Z,77.6
2017-09-12T02:39:00.350Z,77.6
2017-09-12T02:40:02.751Z,77.2
2017-09-12T02:41:05.132Z,77.5
2017-09-12T02:42:07.522Z,77.6
2017-09-12T02:43:09.927Z,77.6
2017-09-12T02:44:12.656Z,77.6
2017-09-12T02:45:15.386Z,77.6
2017-09-12T02:46:17.780Z,77.3
2017-09-12T02:47:20.501Z,77.6
2017-09-12T02:48:22.892Z,77.2
2017-09-12T02:49:25.628Z,77.6
2017-09-12T02:50:28.053Z,77.3
2017-09-12T02:51:30.409Z,77
2017-09-12T02:52:32.808Z,76.9
2017-09-12T02:53:35.887Z,77.1
2017-09-12T02:54:38.286Z,77.4
2017-09-12T02:55:40.674Z,77.5
2017-09-12T02:56:43.063Z,77.3
2017-09-12T02:57:45.461Z,77.2
2017-09-12T02:58:47.854Z,77.2
2017-09-12T02:59:50.241Z,77.4
2017-09-12T03:00:52.643Z,77.5
2017-09-12T03:01:55.024Z,77.6
2017-09-12T03:02:57.408Z,77.2
2017-09-12T03:04:00.141Z,77.3
2017-09-12T03:05:02.535Z,77.5
2017-09-12T03:06:04.932Z,77
2017-09-12T03:07:07.317Z,77
2017-09-12T03:08:10.056Z,77
2017-09-12T03:09:12.460Z,77.6
2017-09-12T03:10:14.847Z,77.3
2017-09-12T03:11:17.236Z,77.3
2017-09-12T03:12:19.633Z,77.4
2017-09-12T03:13:22.024Z,77
2017-09-12T03:14:24.424Z,77.3
2017-09-12T03:15:26.822Z,77.5
2017-09-12T03:16:29.200Z,77.4
2017-09-12T03:17:31.600Z,77.2
2017-09-12T03:18:33.994Z,76.9
2017-09-12T03:19:36.384Z,76.9
2017-09-12T03:20:38.777Z,76.4
2017-09-12T03:21:41.168Z,77
2017-09-12T03:22:43.559Z,76.8
2017-09-12T03:23:45.959Z,77.3
2017-09-12T03:24:48.351Z,76.6
2017-09-12T03:25:50.738Z,77.2
2017-09-12T03:26:53.129Z,76.7
2017-09-12T03:27:55.532Z,77.1
2017-09-12T03:28:57.925Z,77
2017-09-12T03:30:00.324Z,77.3
2017-09-12T03:31:02.712Z,77.1
2017-09-12T03:32:05.444Z,77
2017-09-12T03:33:07.842Z,76.8
2017-09-12T03:34:10.236Z,77.1
2017-09-12T03:35:12.624Z,76.8
2017-09-12T03:36:15.012Z,76.7
2017-09-12T03:37:17.404Z,77
2017-09-12T03:38:19.792Z,76.7
2017-09-12T03:39:22.181Z,76.5
2017-09-12T03:40:24.584Z,76.7
2017-09-12T03:41:26.974Z,76.6
2017-09-12T03:42:29.365Z,76.4
2017-09-12T03:43:32.096Z,76.7
2017-09-12T03:44:34.496Z,76.8
2017-09-12T03:45:37.230Z,77
2017-09-12T03:46:39.621Z,76.4
2017-09-12T03:47:42.011Z,76.1
2017-09-12T03:48:44.404Z,76.4
2017-09-12T03:49:47.142Z,76.7
2017-09-12T03:50:49.530Z,76.7
2017-09-12T03:51:51.935Z,76.6
2017-09-12T03:52:54.328Z,77
2017-09-12T03:53:56.717Z,76.6
2017-09-12T03:54:59.112Z,76.6
2017-09-12T03:56:01.506Z,76.8
2017-09-12T03:57:04.240Z,76.5
2017-09-12T03:58:06.640Z,76.5
2017-09-12T03:59:09.029Z,76.6
2017-09-12T04:00:11.419Z,76.5
2017-09-12T04:01:13.820Z,76.7
2017-09-12T04:02:16.209Z,76.5
2017-09-12T04:03:18.602Z,76.4
2017-09-12T04:04:21.001Z,76.5
2017-09-12T04:05:23.729Z,76.1
2017-09-12T04:06:26.125Z,76.2
2017-09-12T04:07:28.515Z,76.4
2017-09-12T04:08:30.908Z,76.1
2017-09-12T04:09:33.307Z,76.1
2017-09-12T04:10:35.702Z,76.1
2017-09-12T04:11:38.097Z,76.1
2017-09-12T04:12:40.830Z,76
2017-09-12T04:13:43.222Z,75.9
2017-09-12T04:14:45.615Z,76
2017-09-12T04:15:48.001Z,76
2017-09-12T04:16:50.393Z,75.9
2017-09-12T04:17:52.785Z,76
2017-09-12T04:18:55.512Z,75.9
2017-09-12T04:19:57.904Z,76
2017-09-12T04:21:00.300Z,75.9
2017-09-12T04:22:02.697Z,76
2017-09-12T04:23:05.095Z,76.2
2017-09-12T04:24:07.493Z,75.9
2017-09-12T04:25:09.874Z,76.1
2017-09-12T04:26:12.267Z,76.1
2017-09-12T04:27:14.666Z,75.9
2017-09-12T04:28:17.060Z,75.9
2017-09-12T04:29:19.451Z,76.2
2017-09-12T04:30:21.832Z,76
2017-09-12T04:31:24.222Z,76.1
2017-09-12T04:32:26.623Z,76
2017-09-12T04:33:29.019Z,76.1
2017-09-12T04:34:31.406Z,76.1
2017-09-12T04:35:33.797Z,76.1
2017-09-12T04:36:36.185Z,76
2017-09-12T04:37:38.585Z,76
2017-09-12T04:38:40.978Z,76
2017-09-12T04:39:43.714Z,76
2017-09-12T04:40:46.111Z,76.1
2017-09-12T04:41:48.844Z,76
2017-09-12T04:42:51.596Z,76
2017-09-12T04:43:53.977Z,76.3
2017-09-12T04:44:56.372Z,76
2017-09-12T04:45:59.107Z,76.1
2017-09-12T04:47:01.492Z,76.1
2017-09-12T04:48:03.886Z,76.2
2017-09-12T04:49:06.290Z,76.1
2017-09-12T04:50:08.679Z,76.1
2017-09-12T04:51:11.767Z,76.1
2017-09-12T04:52:14.161Z,76.2
2017-09-12T04:53:16.559Z,76.3
2017-09-12T04:54:18.958Z,76.2
2017-09-12T04:55:21.350Z,76.2
2017-09-12T04:56:23.743Z,76.2
2017-09-12T04:57:26.143Z,76.3
2017-09-12T04:58:28.540Z,76.3
2017-09-12T04:59:30.950Z,76.3
2017-09-12T05:00:33.343Z,76.3
2017-09-12T05:01:36.419Z,76.3
2017-09-12T05:02:38.816Z,76.3
2017-09-12T05:03:41.224Z,76.3
2017-09-12T05:04:43.622Z,76.3
2017-09-12T05:05:46.018Z,76.3
2017-09-12T05:06:48.412Z,76.3
2017-09-12T05:07:51.149Z,76.3
2017-09-12T05:08:53.548Z,76.3
2017-09-12T05:09:55.948Z,76.3
2017-09-12T05:10:58.347Z,76.3
2017-09-12T05:12:00.732Z,76.3
2017-09-12T05:13:03.142Z,76.3
2017-09-12T05:14:05.543Z,76.3
2017-09-12T05:15:07.932Z,76.3
2017-09-12T05:16:10.326Z,76.3
2017-09-12T05:17:12.721Z,76.3
2017-09-12T05:18:15.120Z,76.3
2017-09-12T05:19:17.521Z,76.3
2017-09-12T05:20:20.279Z,76.3
2017-09-12T05:21:22.667Z,76.3
2017-09-12T05:22:25.071Z,76.3
2017-09-12T05:23:27.461Z,76.3
2017-09-12T05:24:29.855Z,76.3
2017-09-12T05:25:32.251Z,76.3
2017-09-12T05:26:34.640Z,76.4
2017-09-12T05:27:37.044Z,76.4
2017-09-12T05:28:39.449Z,76.4
2017-09-12T05:29:41.838Z,76.4
2017-09-12T05:30:44.234Z,76.4
2017-09-12T05:31:46.636Z,76.4
2017-09-12T05:32:49.026Z,76.4
2017-09-12T05:33:51.425Z,76.4
2017-09-12T05:34:54.160Z,76.4
2017-09-12T05:35:56.564Z,76.4
2017-09-12T05:36:58.986Z,76.4
2017-09-12T05:38:01.385Z,76.4
2017-09-12T05:39:03.800Z,76.4
2017-09-12T05:40:06.194Z,76.4
2017-09-12T05:41:08.581Z,76.4
2017-09-12T05:42:10.983Z,76.4
2017-09-12T05:43:13.368Z,76.4
2017-09-12T05:44:15.768Z,76.4
2017-09-12T05:45:18.166Z,76.4
2017-09-12T05:46:20.551Z,76.4
2017-09-12T05:47:22.950Z,76.4
2017-09-12T05:48:25.364Z,76.4
2017-09-12T05:49:27.751Z,76.4
2017-09-12T05:50:30.155Z,76.4
2017-09-12T05:51:32.554Z,76.5
2017-09-12T05:52:34.944Z,76.5
2017-09-12T05:53:37.348Z,76.5
2017-09-12T05:54:39.751Z,76.5
2017-09-12T05:55:42.150Z,76.5
2017-09-12T05:56:44.556Z,76.5
2017-09-12T05:57:47.290Z,76.6
2017-09-12T05:58:49.685Z,76.5
2017-09-12T05:59:52.086Z,76.5
2017-09-12T06:00:54.474Z,76.6
2017-09-12T06:01:56.869Z,76.6
2017-09-12T06:02:59.277Z,76.6
2017-09-12T06:04:01.678Z,76.6
2017-09-12T06:05:04.418Z,76.6
2017-09-12T06:06:06.821Z,76.6
2017-09-12T06:07:09.224Z,76.6
2017-09-12T06:08:11.628Z,76.6
2017-09-12T06:09:14.019Z,76.7
2017-09-12T06:10:16.423Z,76.7
2017-09-12T06:11:18.812Z,76.7
2017-09-12T06:12:21.216Z,76.7
2017-09-12T06:13:23.614Z,76.7
2017-09-12T06:14:26.005Z,76.7
2017-09-12T06:15:28.402Z,76.7
2017-09-12T06:16:30.804Z,76.4
2017-09-12T06:17:33.200Z,76.6
2017-09-12T06:18:35.600Z,76.1
2017-09-12T06:19:38.332Z,76.5
2017-09-12T06:20:40.724Z,76.4
2017-09-12T06:21:43.119Z,76.6
2017-09-12T06:22:45.518Z,76.8
2017-09-12T06:23:47.908Z,76.8
2017-09-12T06:24:50.308Z,76.8
2017-09-12T06:25:52.701Z,76.9
2017-09-12T06:26:55.106Z,76.3
2017-09-12T06:27:57.501Z,75.7
2017-09-12T06:28:59.888Z,75.6
2017-09-12T06:30:02.291Z,75.8
2017-09-12T06:31:05.035Z,75.7
2017-09-12T06:32:07.438Z,75.8
2017-09-12T06:33:09.836Z,75.8
2017-09-12T06:34:12.243Z,75.8
2017-09-12T06:35:14.637Z,75.8
2017-09-12T06:36:17.042Z,75.3
2017-09-12T06:37:19.435Z,75.4
2017-09-12T06:38:21.844Z,75.2
2017-09-12T06:39:24.238Z,75.2
2017-09-12T06:40:26.630Z,75.6
2017-09-12T06:41:29.025Z,75.8
2017-09-12T06:42:31.429Z,75.2
2017-09-12T06:43:33.829Z,75.5
2017-09-12T06:44:36.223Z,75.4
2017-09-12T06:45:38.617Z,75.5
2017-09-12T06:46:41.019Z,75.5
2017-09-12T06:47:43.750Z,75.5
2017-09-12T06:48:46.151Z,75.5
2017-09-12T06:49:48.556Z,75.2
2017-09-12T06:50:50.954Z,75.5
2017-09-12T06:51:53.357Z,75.5
2017-09-12T06:52:55.760Z,75.5
2017-09-12T06:53:58.155Z,75.8
2017-09-12T06:55:00.549Z,75.5
2017-09-12T06:56:02.941Z,75.7
2017-09-12T06:57:05.541Z,75.8
2017-09-12T06:58:07.943Z,76
2017-09-12T06:59:10.331Z,76.1
2017-09-12T07:00:12.728Z,76.2
2017-09-12T07:01:15.129Z,76
2017-09-12T07:02:17.519Z,76.1
2017-09-12T07:03:19.914Z,75.9
2017-09-12T07:04:22.317Z,75.9
2017-09-12T07:05:24.705Z,76
2017-09-12T07:06:27.096Z,75.8
2017-09-12T07:07:29.500Z,75.9
2017-09-12T07:08:31.899Z,76
2017-09-12T07:09:34.289Z,75.9
2017-09-12T07:10:37.035Z,75.6
2017-09-12T07:11:39.415Z,75.4
2017-09-12T07:12:42.153Z,75.5
2017-09-12T07:13:44.555Z,75.2
2017-09-12T07:14:46.951Z,75.3
2017-09-12T07:15:49.350Z,75.3
2017-09-12T07:16:51.760Z,74.7
2017-09-12T07:17:54.148Z,74.7
2017-09-12T07:18:56.894Z,74.7
2017-09-12T07:19:59.285Z,75
2017-09-12T07:21:02.024Z,75.1
2017-09-12T07:22:04.426Z,75.2
2017-09-12T07:23:06.823Z,75.1
2017-09-12T07:24:09.208Z,75.4
2017-09-12T07:25:11.974Z,75.4
2017-09-12T07:26:14.364Z,74.5
2017-09-12T07:27:16.761Z,74.6
2017-09-12T07:28:19.157Z,74.8
2017-09-12T07:29:21.556Z,74.7
2017-09-12T07:30:23.965Z,74.7
2017-09-12T07:31:26.365Z,74.8
2017-09-12T07:32:28.762Z,74.8
2017-09-12T07:33:31.155Z,75.1
2017-09-12T07:34:33.560Z,75.2
2017-09-12T07:35:35.960Z,75.1
2017-09-12T07:36:38.360Z,75.1
2017-09-12T07:37:40.745Z,75.2
2017-09-12T07:38:43.147Z,74.9
2017-09-12T07:39:45.545Z,74.9
2017-09-12T07:40:48.295Z,74.8
2017-09-12T07:41:50.693Z,74.8
2017-09-12T07:42:53.092Z,75
2017-09-12T07:43:55.833Z,75.3
2017-09-12T07:44:58.240Z,75.6
2017-09-12T07:46:00.638Z,75.6
2017-09-12T07:47:03.034Z,75.3
2017-09-12T07:48:05.431Z,75.4
2017-09-12T07:49:07.824Z,75.3
2017-09-12T07:50:10.224Z,75.3
2017-09-12T07:51:12.622Z,75.4
2017-09-12T07:52:15.008Z,75.6
2017-09-12T07:53:17.402Z,75.3
2017-09-12T07:54:19.797Z,75.6
2017-09-12T07:55:22.198Z,75.3
2017-09-12T07:56:24.948Z,75.4
2017-09-12T07:57:27.343Z,75.4
2017-09-12T07:58:29.745Z,75.2
2017-09-12T07:59:32.150Z,75
2017-09-12T08:00:34.553Z,75.1
2017-09-12T08:01:36.952Z,75.1
2017-09-12T08:02:39.346Z,75
2017-09-12T08:03:41.745Z,74.8
2017-09-12T08:04:44.477Z,74.7
2017-09-12T08:05:46.879Z,74.6
2017-09-12T08:06:49.283Z,74.8
2017-09-12T08:07:51.681Z,74.8
2017-09-12T08:08:54.083Z,74.6
2017-09-12T08:09:56.480Z,74.6
2017-09-12T08:10:58.872Z,74.7
2017-09-12T08:12:01.268Z,74.9
2017-09-12T08:13:03.664Z,74.8
2017-09-12T08:14:06.060Z,75
2017-09-12T08:15:08.455Z,74.8
2017-09-12T08:16:10.849Z,74.9
2017-09-12T08:17:13.242Z,75.2
2017-09-12T08:18:15.641Z,75.2
2017-09-12T08:19:18.038Z,75
2017-09-12T08:20:20.442Z,74.9
2017-09-12T08:21:22.846Z,74.9
2017-09-12T08:22:25.234Z,74.5
2017-09-12T08:23:27.639Z,74.4
2017-09-12T08:24:30.042Z,74.5
2017-09-12T08:25:32.425Z,74.7
2017-09-12T08:26:34.829Z,74.9
2017-09-12T08:27:37.242Z,75.1
2017-09-12T08:28:39.635Z,75.3
2017-09-12T08:29:42.033Z,75.6
2017-09-12T08:30:44.427Z,75.6
2017-09-12T08:31:46.825Z,75.4
2017-09-12T08:32:49.212Z,74.9
2017-09-12T08:33:51.612Z,74.8
2017-09-12T08:34:54.028Z,74.4
2017-09-12T08:35:56.774Z,74.7
2017-09-12T08:36:59.183Z,75.1
2017-09-12T08:38:01.586Z,75.4
2017-09-12T08:39:03.979Z,75.2
2017-09-12T08:40:06.381Z,75.3
2017-09-12T08:41:09.115Z,75.8
2017-09-12T08:42:11.499Z,74.9
2017-09-12T08:43:13.902Z,74.8
2017-09-12T08:44:16.305Z,74.3
2017-09-12T08:45:18.716Z,73.8
2017-09-12T08:46:21.121Z,73.6
2017-09-12T08:47:23.510Z,73.7
2017-09-12T08:48:25.910Z,73.5
2017-09-12T08:49:28.322Z,74
2017-09-12T08:50:30.724Z,74.2
2017-09-12T08:51:33.124Z,74.5
2017-09-12T08:52:35.525Z,74.3
2017-09-12T08:53:37.919Z,74.2
2017-09-12T08:54:40.319Z,74.2
2017-09-12T08:55:42.722Z,74.3
2017-09-12T08:56:45.110Z,74.4
2017-09-12T08:57:47.510Z,74.7
2017-09-12T08:58:49.913Z,74.7
2017-09-12T08:59:52.305Z,74.4
2017-09-12T09:00:54.701Z,74.1
2017-09-12T09:01:57.107Z,73.8
2017-09-12T09:02:59.503Z,73.7
2017-09-12T09:04:01.897Z,73.4
2017-09-12T09:05:04.317Z,73.5
2017-09-12T09:06:07.071Z,73.7
2017-09-12T09:07:09.468Z,74.1
2017-09-12T09:08:11.871Z,73.9
2017-09-12T09:09:14.267Z,73.7
2017-09-12T09:10:16.667Z,73.8
2017-09-12T09:11:19.068Z,73.6
2017-09-12T09:12:21.466Z,73.4
2017-09-12T09:13:24.535Z,73.3
2017-09-12T09:14:26.936Z,73.3
2017-09-12T09:15:29.331Z,73.1
2017-09-12T09:16:31.722Z,73.5
2017-09-12T09:17:34.129Z,73.7
2017-09-12T09:18:36.527Z,73.6
2017-09-12T09:19:39.284Z,73.2
2017-09-12T09:20:41.682Z,73.3
2017-09-12T09:21:44.077Z,73.5
2017-09-12T09:22:46.479Z,73.6
2017-09-12T09:23:48.878Z,73.7
2017-09-12T09:24:51.605Z,73.5
2017-09-12T09:25:53.999Z,73.5
2017-09-12T09:26:56.737Z,73.3
2017-09-12T09:27:59.134Z,73.3
2017-09-12T09:29:01.539Z,73.3
2017-09-12T09:30:03.943Z,73.4
2017-09-12T09:31:06.344Z,73
2017-09-12T09:32:08.734Z,73
2017-09-12T09:33:11.135Z,72.9
2017-09-12T09:34:13.538Z,72.9
2017-09-12T09:35:15.939Z,72.8
2017-09-12T09:36:18.342Z,73.2
2017-09-12T09:37:20.745Z,73.1
2017-09-12T09:38:23.467Z,72.9
2017-09-12T09:39:26.218Z,72.9
2017-09-12T09:40:28.614Z,73.2
2017-09-12T09:41:31.008Z,73.5
2017-09-12T09:42:33.408Z,73.4
2017-09-12T09:43:35.801Z,73.7
2017-09-12T09:44:38.195Z,73.4
2017-09-12T09:45:40.592Z,73.6
2017-09-12T09:46:42.985Z,73.5
2017-09-12T09:47:45.384Z,73.8
2017-09-12T09:48:47.796Z,74.8
2017-09-12T09:49:50.186Z,75.2
2017-09-12T09:50:52.580Z,76.3
2017-09-12T09:51:55.316Z,76.4
2017-09-12T09:52:57.714Z,76.6
2017-09-12T09:54:00.117Z,77.2
2017-09-12T09:55:02.517Z,77.3
2017-09-12T09:56:04.904Z,77.1
2017-09-12T09:57:07.311Z,76.7
2017-09-12T09:58:09.713Z,76.1
2017-09-12T09:59:12.115Z,76.7
2017-09-12T10:00:14.509Z,77
2017-09-12T10:01:17.247Z,76.6
2017-09-12T10:02:19.647Z,75.8
2017-09-12T10:03:22.048Z,74.7
2017-09-12T10:04:24.440Z,74.3
2017-09-12T10:05:26.849Z,74.7
2017-09-12T10:06:29.246Z,75.5
2017-09-12T10:07:31.643Z,74.9
2017-09-12T10:08:34.050Z,74.3
2017-09-12T10:09:36.452Z,73.8
2017-09-12T10:10:38.856Z,73.7
2017-09-12T10:11:41.264Z,73.3
2017-09-12T10:12:43.652Z,73.6
2017-09-12T10:13:46.056Z,73.9
2017-09-12T10:14:48.461Z,74.8
2017-09-12T10:15:50.856Z,75.1
2017-09-12T10:16:53.265Z,74.7
2017-09-12T10:17:55.668Z,73.1
2017-09-12T10:18:58.744Z,73.3
2017-09-12T10:20:01.153Z,72.7
2017-09-12T10:21:03.562Z,72.4
2017-09-12T10:22:05.946Z,71.8
2017-09-12T10:23:08.362Z,70.6
2017-09-12T10:24:10.758Z,70.8
2017-09-12T10:25:13.162Z,71.2
2017-09-12T10:26:15.568Z,69.3
2017-09-12T10:27:17.967Z,69.7
2017-09-12T10:28:20.368Z,70.3
2017-09-12T10:29:22.785Z,70.4
2017-09-12T10:30:25.182Z,70.8
2017-09-12T10:31:27.584Z,70.3
2017-09-12T10:32:29.981Z,70.4
2017-09-12T10:33:32.384Z,70.1
2017-09-12T10:34:34.784Z,69.8
2017-09-12T10:35:37.181Z,70
2017-09-12T10:36:39.589Z,70.4
2017-09-12T10:37:41.988Z,70.4
2017-09-12T10:38:44.386Z,70.1
2017-09-12T10:39:46.792Z,69.7
2017-09-12T10:40:49.199Z,68.9
2017-09-12T10:41:51.604Z,68.4
2017-09-12T10:42:54.056Z,68.2
2017-09-12T10:43:56.450Z,68.2
2017-09-12T10:44:58.863Z,67.9
2017-09-12T10:46:01.273Z,67.9
2017-09-12T10:47:03.667Z,67.2
2017-09-12T10:48:06.083Z,67.4
2017-09-12T10:49:08.484Z,67.7
2017-09-12T10:50:10.879Z,68.5
2017-09-12T10:51:13.620Z,68.3
2017-09-12T10:52:16.022Z,68.5
2017-09-12T10:53:18.428Z,68.4
2017-09-12T10:54:21.169Z,68.1
2017-09-12T10:55:23.563Z,68.1
2017-09-12T10:56:25.962Z,67.8
2017-09-12T10:57:28.371Z,68.1
2017-09-12T10:58:30.770Z,68.3
2017-09-12T10:59:33.172Z,68.6
2017-09-12T11:00:35.564Z,68.4
2017-09-12T11:01:37.960Z,68.2
2017-09-12T11:02:40.717Z,68.1
2017-09-12T11:03:43.113Z,68.4
2017-09-12T11:04:45.517Z,68.8
2017-09-12T11:05:48.273Z,69
2017-09-12T11:06:50.669Z,68.9
2017-09-12T11:07:53.075Z,69
2017-09-12T11:08:55.481Z,69.7
2017-09-12T11:09:57.873Z,69.8
2017-09-12T11:11:00.277Z,69.6
2017-09-12T11:12:02.684Z,69
2017-09-12T11:13:05.072Z,69.6
2017-09-12T11:14:07.469Z,69.3
2017-09-12T11:15:09.869Z,68.7
2017-09-12T11:16:12.265Z,69.1
2017-09-12T11:17:14.672Z,68.9
2017-09-12T11:18:17.080Z,68.4
2017-09-12T11:19:19.485Z,68.3
2017-09-12T11:20:21.898Z,68.6
2017-09-12T11:21:24.318Z,67.7
2017-09-12T11:22:26.734Z,68.7
2017-09-12T11:23:29.160Z,68.5
2017-09-12T11:24:31.574Z,67.5
2017-09-12T11:25:33.978Z,67.6
2017-09-12T11:26:36.393Z,67.3
2017-09-12T11:27:38.812Z,66.9
2017-09-12T11:28:41.215Z,65.6
2017-09-12T11:29:43.645Z,65.3
2017-09-12T11:30:46.052Z,64.8
2017-09-12T11:31:48.474Z,64.8
2017-09-12T11:32:50.896Z,64.7
2017-09-12T11:33:53.333Z,64.7
2017-09-12T11:34:55.740Z,64.7
2017-09-12T11:35:58.146Z,64.7
2017-09-12T11:37:00.560Z,65.1
2017-09-12T11:38:02.974Z,65.4
2017-09-12T11:39:05.387Z,65.7
2017-09-12T11:40:07.789Z,65.9
2017-09-12T11:41:10.192Z,66
2017-09-12T11:42:12.594Z,66
2017-09-12T11:43:14.997Z,66.3
2017-09-12T11:44:17.396Z,66.4
2017-09-12T11:45:19.805Z,66.5
2017-09-12T11:46:22.214Z,66.6
2017-09-12T11:47:25.001Z,66.7
2017-09-12T11:48:27.403Z,66.9
2017-09-12T11:49:29.809Z,67.1
2017-09-12T11:50:32.210Z,67.3
2017-09-12T11:51:34.610Z,67.3
2017-09-12T11:52:37.348Z,67.2
2017-09-12T11:53:39.743Z,67.3
2017-09-12T11:54:42.168Z,67.6
2017-09-12T11:55:44.572Z,67.9
2017-09-12T11:56:46.974Z,68.1
2017-09-12T11:57:49.374Z,68.1
2017-09-12T11:58:51.783Z,67.7
2017-09-12T11:59:54.184Z,67.4
2017-09-12T12:00:56.579Z,67.3
2017-09-12T12:01:58.991Z,67.4
2017-09-12T12:03:01.395Z,67.4
2017-09-12T12:04:03.802Z,67.4
2017-09-12T12:05:06.205Z,67.5
2017-09-12T12:06:08.606Z,67.6
2017-09-12T12:07:11.006Z,67.6
2017-09-12T12:08:13.407Z,68.2
2017-09-12T12:09:15.799Z,68.3
2017-09-12T12:10:18.193Z,68.6
2017-09-12T12:11:20.594Z,68.4
2017-09-12T12:12:22.997Z,67.9
2017-09-12T12:13:25.400Z,68.2
2017-09-12T12:14:27.800Z,68.3
2017-09-12T12:15:30.567Z,68.5
2017-09-12T12:16:32.973Z,68.6
2017-09-12T12:17:35.377Z,68.9
2017-09-12T12:18:37.773Z,69.1
2017-09-12T12:19:40.171Z,68.4
2017-09-12T12:20:42.918Z,68.7
2017-09-12T12:21:45.316Z,68.5
2017-09-12T12:22:47.713Z,68.7
2017-09-12T12:23:50.114Z,68.9
2017-09-12T12:24:52.850Z,68.7
2017-09-12T12:25:55.256Z,67
2017-09-12T12:26:57.662Z,67.2
2017-09-12T12:28:00.053Z,66.7
2017-09-12T12:29:02.464Z,64.4
2017-09-12T12:30:04.862Z,65.4
2017-09-12T12:31:07.266Z,65
2017-09-12T12:32:09.667Z,64.3
2017-09-12T12:33:12.078Z,64.4
2017-09-12T12:34:14.824Z,64.5
2017-09-12T12:35:17.215Z,64.6
2017-09-12T12:36:19.621Z,64.9
2017-09-12T12:37:22.025Z,65.1
2017-09-12T12:38:24.763Z,65.3
2017-09-12T12:39:27.167Z,65.4
2017-09-12T12:40:29.566Z,65.8
2017-09-12T12:41:31.973Z,66
2017-09-12T12:42:34.385Z,66.4
2017-09-12T12:43:36.783Z,66.8
2017-09-12T12:44:39.192Z,66.9
2017-09-12T12:45:41.589Z,66.9
2017-09-12T12:46:43.998Z,65.9
2017-09-12T12:47:46.401Z,65.2
2017-09-12T12:48:48.810Z,64.9
2017-09-12T12:49:51.205Z,64.8
2017-09-12T12:50:53.615Z,64.1
2017-09-12T12:51:56.012Z,64.1
2017-09-12T12:52:58.426Z,63.9
2017-09-12T12:54:01.195Z,63.7
2017-09-12T12:55:03.599Z,63.3
2017-09-12T12:56:06.009Z,63
2017-09-12T12:57:08.416Z,62.9
2017-09-12T12:58:10.813Z,62.6
2017-09-12T12:59:13.564Z,62.6
2017-09-12T13:00:15.965Z,62.6
2017-09-12T13:01:18.363Z,62.8
2017-09-12T13:02:20.778Z,63.1
2017-09-12T13:03:23.183Z,63.3
2017-09-12T13:04:25.587Z,63.4
2017-09-12T13:05:27.996Z,63.8
2017-09-12T13:06:30.393Z,63.8
2017-09-12T13:07:32.802Z,64
2017-09-12T13:08:35.218Z,64.2
2017-09-12T13:09:37.614Z,64.4
2017-09-12T13:10:40.013Z,64.7
2017-09-12T13:11:42.424Z,64.9
2017-09-12T13:12:44.846Z,65.1
2017-09-12T13:13:47.258Z,65.2
2017-09-12T13:14:49.670Z,65.4
2017-09-12T13:15:52.064Z,65.8
2017-09-12T13:16:54.476Z,66.4
2017-09-12T13:17:56.881Z,66.5
2017-09-12T13:18:59.280Z,66.5
2017-09-12T13:20:01.683Z,66.5
2017-09-12T13:21:04.086Z,66.4
2017-09-12T13:22:06.485Z,66.2
2017-09-12T13:23:08.898Z,65.9
2017-09-12T13:24:11.640Z,65.8
2017-09-12T13:25:14.041Z,65.7
2017-09-12T13:26:16.455Z,65.7
2017-09-12T13:27:19.198Z,65.6
2017-09-12T13:28:21.599Z,65.7
2017-09-12T13:29:23.996Z,65.7
2017-09-12T13:30:26.404Z,65.9
2017-09-12T13:31:28.806Z,65.9
2017-09-12T13:32:31.206Z,65.9
2017-09-12T13:33:33.628Z,66.1
2017-09-12T13:34:36.032Z,66.3
2017-09-12T13:35:38.443Z,66.4
2017-09-12T13:36:40.844Z,66.7
2017-09-12T13:37:43.247Z,67
2017-09-12T13:38:45.652Z,67
2017-09-12T13:39:48.059Z,67
2017-09-12T13:40:50.472Z,66.1
2017-09-12T13:41:52.875Z,65.8
2017-09-12T13:42:55.286Z,66
2017-09-12T13:43:57.694Z,66.2
2017-09-12T13:45:00.105Z,65.9
2017-09-12T13:46:02.506Z,65.9
2017-09-12T13:47:04.911Z,65.9
2017-09-12T13:48:07.316Z,65.8
2017-09-12T13:49:09.729Z,65.1
2017-09-12T13:50:12.142Z,65.1
2017-09-12T13:51:14.545Z,65.1
2017-09-12T13:52:16.956Z,64.9
2017-09-12T13:53:19.377Z,64.4
2017-09-12T13:54:21.780Z,64.1
2017-09-12T13:55:24.187Z,64.1